sensor_id;sensor_type;location;lat;lon;timestamp;P1;durP1;ratioP1;P2;durP2;ratioP2
12429;SDS011;6279;42.192;24.326;2023-06-14T00:00:12;7.43;;;6.13;;
12429;SDS011;6279;42.192;24.326;2023-06-14T00:02:39;7.33;;;6.63;;
12429;SDS011;6279;42.192;24.326;2023-06-14T00:05:05;7.63;;;5.90;;
12429;SDS011;6279;42.192;24.326;2023-06-14T00:07:34;7.23;;;5.97;;
12429;SDS011;6279;42.192;24.326;2023-06-14T00:10:02;8.43;;;6.33;;
12429;SDS011;6279;42.192;24.326;2023-06-14T00:12:29;8.73;;;6.77;;
12429;SDS011;6279;42.192;24.326;2023-06-14T00:14:54;9.40;;;6.63;;
12429;SDS011;6279;42.192;24.326;2023-06-14T00:17:20;12.73;;;7.90;;
12429;SDS011;6279;42.192;24.326;2023-06-14T00:19:45;9.27;;;7.03;;
12429;SDS011;6279;42.192;24.326;2023-06-14T00:22:11;7.47;;;6.87;;
12429;SDS011;6279;42.192;24.326;2023-06-14T00:24:37;8.03;;;7.20;;
12429;SDS011;6279;42.192;24.326;2023-06-14T00:27:02;13.30;;;7.90;;
12429;SDS011;6279;42.192;24.326;2023-06-14T00:29:28;8.73;;;7.33;;
12429;SDS011;6279;42.192;24.326;2023-06-14T00:31:53;8.80;;;8.00;;
12429;SDS011;6279;42.192;24.326;2023-06-14T00:34:18;8.80;;;7.90;;
12429;SDS011;6279;42.192;24.326;2023-06-14T00:36:44;9.30;;;8.27;;
12429;SDS011;6279;42.192;24.326;2023-06-14T00:39:09;9.53;;;8.30;;
12429;SDS011;6279;42.192;24.326;2023-06-14T00:41:35;8.90;;;7.93;;
12429;SDS011;6279;42.192;24.326;2023-06-14T00:44:00;8.60;;;7.70;;
12429;SDS011;6279;42.192;24.326;2023-06-14T00:46:26;8.80;;;7.70;;
12429;SDS011;6279;42.192;24.326;2023-06-14T00:48:51;7.93;;;7.17;;
12429;SDS011;6279;42.192;24.326;2023-06-14T00:51:17;7.90;;;7.10;;
12429;SDS011;6279;42.192;24.326;2023-06-14T00:53:42;7.93;;;7.17;;
12429;SDS011;6279;42.192;24.326;2023-06-14T00:56:12;9.27;;;7.30;;
12429;SDS011;6279;42.192;24.326;2023-06-14T00:58:38;8.83;;;7.43;;
12429;SDS011;6279;42.192;24.326;2023-06-14T01:01:04;7.57;;;6.87;;
12429;SDS011;6279;42.192;24.326;2023-06-14T01:03:29;7.50;;;6.80;;
12429;SDS011;6279;42.192;24.326;2023-06-14T01:06:03;7.30;;;6.60;;
12429;SDS011;6279;42.192;24.326;2023-06-14T01:11:33;9.13;;;7.70;;
12429;SDS011;6279;42.192;24.326;2023-06-14T01:14:06;7.90;;;7.20;;
12429;SDS011;6279;42.192;24.326;2023-06-14T01:16:32;8.53;;;7.67;;
12429;SDS011;6279;42.192;24.326;2023-06-14T01:19:01;7.70;;;6.90;;
12429;SDS011;6279;42.192;24.326;2023-06-14T01:21:27;8.80;;;7.90;;
12429;SDS011;6279;42.192;24.326;2023-06-14T01:23:53;7.50;;;6.80;;
12429;SDS011;6279;42.192;24.326;2023-06-14T01:26:20;8.00;;;7.30;;
12429;SDS011;6279;42.192;24.326;2023-06-14T01:28:49;8.33;;;7.57;;
12429;SDS011;6279;42.192;24.326;2023-06-14T01:31:18;7.90;;;7.10;;
12429;SDS011;6279;42.192;24.326;2023-06-14T01:33:46;8.00;;;7.30;;
12429;SDS011;6279;42.192;24.326;2023-06-14T01:36:14;7.80;;;7.10;;
12429;SDS011;6279;42.192;24.326;2023-06-14T01:38:41;7.30;;;6.70;;
12429;SDS011;6279;42.192;24.326;2023-06-14T01:41:08;7.83;;;7.13;;
12429;SDS011;6279;42.192;24.326;2023-06-14T01:43:35;8.80;;;7.60;;
12429;SDS011;6279;42.192;24.326;2023-06-14T01:46:01;8.33;;;7.53;;
12429;SDS011;6279;42.192;24.326;2023-06-14T01:48:28;8.23;;;7.50;;
12429;SDS011;6279;42.192;24.326;2023-06-14T01:50:53;7.40;;;6.60;;
12429;SDS011;6279;42.192;24.326;2023-06-14T01:53:19;8.07;;;7.07;;
12429;SDS011;6279;42.192;24.326;2023-06-14T01:55:44;8.33;;;7.00;;
12429;SDS011;6279;42.192;24.326;2023-06-14T01:58:13;7.37;;;6.67;;
12429;SDS011;6279;42.192;24.326;2023-06-14T02:00:41;8.77;;;7.60;;
12429;SDS011;6279;42.192;24.326;2023-06-14T02:03:08;9.00;;;7.10;;
12429;SDS011;6279;42.192;24.326;2023-06-14T02:05:33;7.90;;;6.63;;
12429;SDS011;6279;42.192;24.326;2023-06-14T02:07:59;7.37;;;6.57;;
12429;SDS011;6279;42.192;24.326;2023-06-14T02:10:25;10.73;;;7.00;;
12429;SDS011;6279;42.192;24.326;2023-06-14T02:12:51;7.33;;;6.63;;
12429;SDS011;6279;42.192;24.326;2023-06-14T02:15:16;7.60;;;6.70;;
12429;SDS011;6279;42.192;24.326;2023-06-14T02:17:46;6.57;;;5.97;;
12429;SDS011;6279;42.192;24.326;2023-06-14T02:20:14;10.53;;;6.83;;
12429;SDS011;6279;42.192;24.326;2023-06-14T02:22:40;8.37;;;6.57;;
12429;SDS011;6279;42.192;24.326;2023-06-14T02:25:06;7.50;;;6.80;;
12429;SDS011;6279;42.192;24.326;2023-06-14T02:27:34;7.60;;;6.80;;
12429;SDS011;6279;42.192;24.326;2023-06-14T02:30:00;8.53;;;6.73;;
12429;SDS011;6279;42.192;24.326;2023-06-14T02:32:26;7.03;;;6.33;;
12429;SDS011;6279;42.192;24.326;2023-06-14T02:34:54;8.67;;;6.60;;
12429;SDS011;6279;42.192;24.326;2023-06-14T02:37:19;8.43;;;6.27;;
12429;SDS011;6279;42.192;24.326;2023-06-14T02:39:45;7.40;;;6.43;;
12429;SDS011;6279;42.192;24.326;2023-06-14T02:42:11;7.17;;;6.47;;
12429;SDS011;6279;42.192;24.326;2023-06-14T02:44:36;7.90;;;7.10;;
12429;SDS011;6279;42.192;24.326;2023-06-14T02:47:02;8.00;;;7.20;;
12429;SDS011;6279;42.192;24.326;2023-06-14T02:49:28;10.23;;;8.73;;
12429;SDS011;6279;42.192;24.326;2023-06-14T02:51:53;10.03;;;9.03;;
12429;SDS011;6279;42.192;24.326;2023-06-14T02:54:18;12.30;;;10.50;;
12429;SDS011;6279;42.192;24.326;2023-06-14T02:56:44;10.27;;;9.20;;
12429;SDS011;6279;42.192;24.326;2023-06-14T02:59:10;10.43;;;9.53;;
12429;SDS011;6279;42.192;24.326;2023-06-14T03:01:35;9.90;;;8.87;;
12429;SDS011;6279;42.192;24.326;2023-06-14T03:04:06;8.43;;;7.50;;
12429;SDS011;6279;42.192;24.326;2023-06-14T03:06:32;11.77;;;7.53;;
12429;SDS011;6279;42.192;24.326;2023-06-14T03:08:58;9.43;;;6.80;;
12429;SDS011;6279;42.192;24.326;2023-06-14T03:11:29;11.83;;;9.20;;
12429;SDS011;6279;42.192;24.326;2023-06-14T03:13:55;8.03;;;7.23;;
12429;SDS011;6279;42.192;24.326;2023-06-14T03:16:21;8.97;;;7.53;;
12429;SDS011;6279;42.192;24.326;2023-06-14T03:18:49;9.53;;;8.00;;
12429;SDS011;6279;42.192;24.326;2023-06-14T03:21:15;10.20;;;7.10;;
12429;SDS011;6279;42.192;24.326;2023-06-14T03:23:41;7.60;;;6.80;;
12429;SDS011;6279;42.192;24.326;2023-06-14T03:26:07;8.07;;;6.80;;
12429;SDS011;6279;42.192;24.326;2023-06-14T03:28:33;8.27;;;6.60;;
12429;SDS011;6279;42.192;24.326;2023-06-14T03:30:58;9.37;;;6.80;;
12429;SDS011;6279;42.192;24.326;2023-06-14T03:33:24;13.03;;;6.67;;
12429;SDS011;6279;42.192;24.326;2023-06-14T03:35:50;7.80;;;6.13;;
12429;SDS011;6279;42.192;24.326;2023-06-14T03:38:16;8.70;;;6.27;;
12429;SDS011;6279;42.192;24.326;2023-06-14T03:40:41;7.23;;;6.27;;
12429;SDS011;6279;42.192;24.326;2023-06-14T03:43:06;7.40;;;6.63;;
12429;SDS011;6279;42.192;24.326;2023-06-14T03:45:32;9.13;;;7.63;;
12429;SDS011;6279;42.192;24.326;2023-06-14T03:47:57;11.00;;;8.63;;
12429;SDS011;6279;42.192;24.326;2023-06-14T03:50:23;11.13;;;7.67;;
12429;SDS011;6279;42.192;24.326;2023-06-14T03:52:49;8.70;;;6.67;;
12429;SDS011;6279;42.192;24.326;2023-06-14T03:55:15;6.83;;;6.23;;
12429;SDS011;6279;42.192;24.326;2023-06-14T03:57:41;9.00;;;6.33;;
12429;SDS011;6279;42.192;24.326;2023-06-14T04:00:07;13.60;;;7.07;;
12429;SDS011;6279;42.192;24.326;2023-06-14T04:02:34;6.80;;;6.10;;
12429;SDS011;6279;42.192;24.326;2023-06-14T04:05:01;9.00;;;6.20;;
12429;SDS011;6279;42.192;24.326;2023-06-14T04:07:27;6.70;;;5.87;;
12429;SDS011;6279;42.192;24.326;2023-06-14T04:09:53;11.90;;;7.00;;
12429;SDS011;6279;42.192;24.326;2023-06-14T04:12:19;11.07;;;6.67;;
12429;SDS011;6279;42.192;24.326;2023-06-14T04:14:45;7.77;;;6.90;;
12429;SDS011;6279;42.192;24.326;2023-06-14T04:17:11;7.43;;;6.37;;
12429;SDS011;6279;42.192;24.326;2023-06-14T04:19:36;6.50;;;5.90;;
12429;SDS011;6279;42.192;24.326;2023-06-14T04:22:02;6.97;;;6.27;;
12429;SDS011;6279;42.192;24.326;2023-06-14T04:24:28;10.97;;;6.90;;
12429;SDS011;6279;42.192;24.326;2023-06-14T04:26:57;8.23;;;6.77;;
12429;SDS011;6279;42.192;24.326;2023-06-14T04:29:23;7.97;;;6.70;;
12429;SDS011;6279;42.192;24.326;2023-06-14T04:31:49;7.53;;;6.83;;
12429;SDS011;6279;42.192;24.326;2023-06-14T04:34:16;9.80;;;7.03;;
12429;SDS011;6279;42.192;24.326;2023-06-14T04:36:42;11.93;;;7.63;;
12429;SDS011;6279;42.192;24.326;2023-06-14T04:39:14;11.83;;;7.60;;
12429;SDS011;6279;42.192;24.326;2023-06-14T04:41:40;8.80;;;7.97;;
12429;SDS011;6279;42.192;24.326;2023-06-14T04:44:06;9.97;;;8.37;;
12429;SDS011;6279;42.192;24.326;2023-06-14T04:46:32;8.67;;;7.73;;
12429;SDS011;6279;42.192;24.326;2023-06-14T04:48:58;10.57;;;7.77;;
12429;SDS011;6279;42.192;24.326;2023-06-14T04:51:27;9.47;;;7.30;;
12429;SDS011;6279;42.192;24.326;2023-06-14T04:53:57;9.67;;;7.30;;
12429;SDS011;6279;42.192;24.326;2023-06-14T04:56:23;9.87;;;7.47;;
12429;SDS011;6279;42.192;24.326;2023-06-14T04:58:50;11.60;;;7.40;;
12429;SDS011;6279;42.192;24.326;2023-06-14T05:01:15;9.17;;;7.20;;
12429;SDS011;6279;42.192;24.326;2023-06-14T05:03:41;8.40;;;7.57;;
12429;SDS011;6279;42.192;24.326;2023-06-14T05:06:06;7.93;;;7.03;;
12429;SDS011;6279;42.192;24.326;2023-06-14T05:08:31;11.87;;;7.20;;
12429;SDS011;6279;42.192;24.326;2023-06-14T05:10:57;8.33;;;7.43;;
12429;SDS011;6279;42.192;24.326;2023-06-14T05:13:22;8.13;;;7.33;;
12429;SDS011;6279;42.192;24.326;2023-06-14T05:15:48;11.33;;;7.33;;
12429;SDS011;6279;42.192;24.326;2023-06-14T05:18:14;9.07;;;7.37;;
12429;SDS011;6279;42.192;24.326;2023-06-14T05:20:39;9.73;;;7.57;;
12429;SDS011;6279;42.192;24.326;2023-06-14T05:23:06;7.87;;;7.03;;
12429;SDS011;6279;42.192;24.326;2023-06-14T05:25:32;7.97;;;7.27;;
12429;SDS011;6279;42.192;24.326;2023-06-14T05:27:57;10.53;;;7.17;;
12429;SDS011;6279;42.192;24.326;2023-06-14T05:30:23;10.27;;;7.63;;
12429;SDS011;6279;42.192;24.326;2023-06-14T05:32:48;14.57;;;7.20;;
12429;SDS011;6279;42.192;24.326;2023-06-14T05:35:14;7.10;;;6.40;;
12429;SDS011;6279;42.192;24.326;2023-06-14T05:37:39;10.07;;;7.30;;
12429;SDS011;6279;42.192;24.326;2023-06-14T05:40:05;9.20;;;7.20;;
12429;SDS011;6279;42.192;24.326;2023-06-14T05:42:32;8.18;;;7.30;;
12429;SDS011;6279;42.192;24.326;2023-06-14T05:44:58;8.20;;;6.72;;
12429;SDS011;6279;42.192;24.326;2023-06-14T05:47:23;8.98;;;7.78;;
12429;SDS011;6279;42.192;24.326;2023-06-14T05:49:49;8.23;;;7.43;;
12429;SDS011;6279;42.192;24.326;2023-06-14T05:52:14;11.02;;;8.10;;
12429;SDS011;6279;42.192;24.326;2023-06-14T05:54:40;9.05;;;8.15;;
12429;SDS011;6279;42.192;24.326;2023-06-14T05:57:06;10.35;;;8.10;;
12429;SDS011;6279;42.192;24.326;2023-06-14T05:59:32;10.13;;;8.55;;
12429;SDS011;6279;42.192;24.326;2023-06-14T06:01:57;9.07;;;8.25;;
12429;SDS011;6279;42.192;24.326;2023-06-14T06:04:23;8.25;;;7.45;;
12429;SDS011;6279;42.192;24.326;2023-06-14T06:06:48;9.52;;;8.52;;
12429;SDS011;6279;42.192;24.326;2023-06-14T06:09:14;9.50;;;8.60;;
12429;SDS011;6279;42.192;24.326;2023-06-14T06:11:40;8.68;;;7.85;;
12429;SDS011;6279;42.192;24.326;2023-06-14T06:14:06;10.10;;;9.10;;
12429;SDS011;6279;42.192;24.326;2023-06-14T06:16:31;10.13;;;9.02;;
12429;SDS011;6279;42.192;24.326;2023-06-14T06:18:56;9.82;;;8.18;;
12429;SDS011;6279;42.192;24.326;2023-06-14T06:21:22;8.65;;;7.85;;
12429;SDS011;6279;42.192;24.326;2023-06-14T06:23:47;8.63;;;7.60;;
12429;SDS011;6279;42.192;24.326;2023-06-14T06:26:13;10.15;;;8.20;;
12429;SDS011;6279;42.192;24.326;2023-06-14T06:28:38;10.13;;;8.95;;
12429;SDS011;6279;42.192;24.326;2023-06-14T06:31:04;8.85;;;8.00;;
12429;SDS011;6279;42.192;24.326;2023-06-14T06:33:30;9.68;;;8.77;;
12429;SDS011;6279;42.192;24.326;2023-06-14T06:35:55;9.15;;;8.23;;
12429;SDS011;6279;42.192;24.326;2023-06-14T06:38:21;9.02;;;8.23;;
12429;SDS011;6279;42.192;24.326;2023-06-14T06:40:46;9.30;;;8.40;;
12429;SDS011;6279;42.192;24.326;2023-06-14T06:43:12;10.10;;;9.05;;
12429;SDS011;6279;42.192;24.326;2023-06-14T06:45:42;10.85;;;9.20;;
12429;SDS011;6279;42.192;24.326;2023-06-14T06:48:07;10.43;;;9.52;;
12429;SDS011;6279;42.192;24.326;2023-06-14T06:50:35;11.93;;;9.70;;
12429;SDS011;6279;42.192;24.326;2023-06-14T06:53:00;10.80;;;9.40;;
12429;SDS011;6279;42.192;24.326;2023-06-14T06:55:26;12.00;;;10.80;;
12429;SDS011;6279;42.192;24.326;2023-06-14T06:57:51;12.77;;;11.57;;
12429;SDS011;6279;42.192;24.326;2023-06-14T07:00:18;14.65;;;12.38;;
12429;SDS011;6279;42.192;24.326;2023-06-14T07:02:45;11.70;;;10.50;;
12429;SDS011;6279;42.192;24.326;2023-06-14T07:05:10;11.48;;;10.38;;
12429;SDS011;6279;42.192;24.326;2023-06-14T07:07:36;11.60;;;9.63;;
12429;SDS011;6279;42.192;24.326;2023-06-14T07:10:02;10.02;;;9.10;;
12429;SDS011;6279;42.192;24.326;2023-06-14T07:12:30;9.98;;;8.85;;
12429;SDS011;6279;42.192;24.326;2023-06-14T07:14:59;15.32;;;9.65;;
12429;SDS011;6279;42.192;24.326;2023-06-14T07:17:25;10.73;;;9.30;;
12429;SDS011;6279;42.192;24.326;2023-06-14T07:19:51;11.02;;;9.20;;
12429;SDS011;6279;42.192;24.326;2023-06-14T07:22:16;11.52;;;8.85;;
12429;SDS011;6279;42.192;24.326;2023-06-14T07:24:42;15.98;;;10.55;;
12429;SDS011;6279;42.192;24.326;2023-06-14T07:27:08;11.30;;;10.10;;
12429;SDS011;6279;42.192;24.326;2023-06-14T07:29:33;10.55;;;8.75;;
12429;SDS011;6279;42.192;24.326;2023-06-14T07:31:59;10.15;;;9.15;;
12429;SDS011;6279;42.192;24.326;2023-06-14T07:34:24;14.30;;;9.50;;
12429;SDS011;6279;42.192;24.326;2023-06-14T07:36:49;13.00;;;9.65;;
12429;SDS011;6279;42.192;24.326;2023-06-14T07:39:16;9.90;;;8.68;;
12429;SDS011;6279;42.192;24.326;2023-06-14T07:41:41;10.50;;;8.55;;
12429;SDS011;6279;42.192;24.326;2023-06-14T07:44:07;10.95;;;9.43;;
12429;SDS011;6279;42.192;24.326;2023-06-14T07:46:32;8.48;;;7.70;;
12429;SDS011;6279;42.192;24.326;2023-06-14T07:48:59;10.23;;;9.20;;
12429;SDS011;6279;42.192;24.326;2023-06-14T07:51:25;10.50;;;9.35;;
12429;SDS011;6279;42.192;24.326;2023-06-14T07:53:50;9.65;;;8.68;;
12429;SDS011;6279;42.192;24.326;2023-06-14T07:56:15;9.50;;;8.57;;
12429;SDS011;6279;42.192;24.326;2023-06-14T07:58:41;15.30;;;12.25;;
12429;SDS011;6279;42.192;24.326;2023-06-14T08:01:06;10.10;;;8.55;;
12429;SDS011;6279;42.192;24.326;2023-06-14T08:03:33;10.02;;;9.00;;
12429;SDS011;6279;42.192;24.326;2023-06-14T08:05:58;11.25;;;10.10;;
12429;SDS011;6279;42.192;24.326;2023-06-14T08:08:24;8.73;;;7.78;;
12429;SDS011;6279;42.192;24.326;2023-06-14T08:10:49;8.02;;;7.22;;
12429;SDS011;6279;42.192;24.326;2023-06-14T08:13:15;8.18;;;7.38;;
12429;SDS011;6279;42.192;24.326;2023-06-14T08:15:40;8.57;;;6.95;;
12429;SDS011;6279;42.192;24.326;2023-06-14T08:18:06;8.57;;;6.93;;
12429;SDS011;6279;42.192;24.326;2023-06-14T08:20:31;7.40;;;6.78;;
12429;SDS011;6279;42.192;24.326;2023-06-14T08:22:57;6.95;;;6.28;;
12429;SDS011;6279;42.192;24.326;2023-06-14T08:25:23;7.38;;;6.68;;
12429;SDS011;6279;42.192;24.326;2023-06-14T08:27:48;8.48;;;7.60;;
12429;SDS011;6279;42.192;24.326;2023-06-14T08:30:15;8.43;;;7.03;;
12429;SDS011;6279;42.192;24.326;2023-06-14T08:32:42;7.65;;;6.90;;
12429;SDS011;6279;42.192;24.326;2023-06-14T08:35:07;6.82;;;6.20;;
12429;SDS011;6279;42.192;24.326;2023-06-14T08:37:33;6.70;;;6.10;;
12429;SDS011;6279;42.192;24.326;2023-06-14T08:40:04;6.95;;;6.18;;
12429;SDS011;6279;42.192;24.326;2023-06-14T08:42:37;7.80;;;6.60;;
12429;SDS011;6279;42.192;24.326;2023-06-14T08:45:03;6.78;;;6.13;;
12429;SDS011;6279;42.192;24.326;2023-06-14T08:47:29;6.75;;;6.15;;
12429;SDS011;6279;42.192;24.326;2023-06-14T08:50:01;7.15;;;6.45;;
12429;SDS011;6279;42.192;24.326;2023-06-14T08:52:29;9.77;;;6.43;;
12429;SDS011;6279;42.192;24.326;2023-06-14T08:55:05;7.93;;;6.40;;
12429;SDS011;6279;42.192;24.326;2023-06-14T08:57:31;8.00;;;6.93;;
12429;SDS011;6279;42.192;24.326;2023-06-14T08:59:58;8.05;;;6.82;;
12429;SDS011;6279;42.192;24.326;2023-06-14T09:02:26;9.30;;;8.50;;
12429;SDS011;6279;42.192;24.326;2023-06-14T09:04:51;9.95;;;7.50;;
12429;SDS011;6279;42.192;24.326;2023-06-14T09:07:17;7.55;;;6.70;;
12429;SDS011;6279;42.192;24.326;2023-06-14T09:09:43;8.40;;;7.60;;
12429;SDS011;6279;42.192;24.326;2023-06-14T09:12:10;8.23;;;7.40;;
12429;SDS011;6279;42.192;24.326;2023-06-14T09:14:36;8.75;;;7.03;;
12429;SDS011;6279;42.192;24.326;2023-06-14T09:17:04;10.77;;;7.35;;
12429;SDS011;6279;42.192;24.326;2023-06-14T09:19:30;8.45;;;7.55;;
12429;SDS011;6279;42.192;24.326;2023-06-14T09:21:55;9.80;;;7.82;;
12429;SDS011;6279;42.192;24.326;2023-06-14T09:24:21;9.10;;;7.78;;
12429;SDS011;6279;42.192;24.326;2023-06-14T09:26:48;8.02;;;7.30;;
12429;SDS011;6279;42.192;24.326;2023-06-14T09:29:16;7.13;;;6.53;;
12429;SDS011;6279;42.192;24.326;2023-06-14T09:31:42;7.75;;;6.88;;
12429;SDS011;6279;42.192;24.326;2023-06-14T09:34:08;10.30;;;6.80;;
12429;SDS011;6279;42.192;24.326;2023-06-14T09:36:34;7.95;;;6.25;;
12429;SDS011;6279;42.192;24.326;2023-06-14T09:39:01;6.75;;;6.22;;
12429;SDS011;6279;42.192;24.326;2023-06-14T09:41:32;6.18;;;5.53;;
12429;SDS011;6279;42.192;24.326;2023-06-14T09:43:59;6.35;;;5.82;;
12429;SDS011;6279;42.192;24.326;2023-06-14T09:46:28;7.60;;;6.60;;
12429;SDS011;6279;42.192;24.326;2023-06-14T09:48:58;7.53;;;6.75;;
12429;SDS011;6279;42.192;24.326;2023-06-14T09:51:24;6.82;;;6.15;;
12429;SDS011;6279;42.192;24.326;2023-06-14T09:53:51;6.30;;;5.78;;
12429;SDS011;6279;42.192;24.326;2023-06-14T09:56:19;4.93;;;4.43;;
12429;SDS011;6279;42.192;24.326;2023-06-14T09:58:49;5.53;;;4.47;;
12429;SDS011;6279;42.192;24.326;2023-06-14T10:01:19;6.32;;;4.30;;
12429;SDS011;6279;42.192;24.326;2023-06-14T10:03:45;5.60;;;5.10;;
12429;SDS011;6279;42.192;24.326;2023-06-14T10:06:13;6.55;;;5.18;;
12429;SDS011;6279;42.192;24.326;2023-06-14T10:08:39;5.38;;;4.88;;
12429;SDS011;6279;42.192;24.326;2023-06-14T10:11:05;7.03;;;5.70;;
12429;SDS011;6279;42.192;24.326;2023-06-14T10:13:31;6.35;;;5.82;;
12429;SDS011;6279;42.192;24.326;2023-06-14T10:16:05;6.53;;;5.93;;
12429;SDS011;6279;42.192;24.326;2023-06-14T10:18:43;6.60;;;6.00;;
12429;SDS011;6279;42.192;24.326;2023-06-14T10:21:36;6.53;;;5.82;;
12429;SDS011;6279;42.192;24.326;2023-06-14T10:24:08;8.25;;;6.28;;
12429;SDS011;6279;42.192;24.326;2023-06-14T10:26:49;7.07;;;6.35;;
12429;SDS011;6279;42.192;24.326;2023-06-14T10:29:16;7.60;;;6.90;;
12429;SDS011;6279;42.192;24.326;2023-06-14T10:34:10;7.13;;;6.53;;
12429;SDS011;6279;42.192;24.326;2023-06-14T10:37:02;7.13;;;6.32;;
12429;SDS011;6279;42.192;24.326;2023-06-14T10:39:29;7.07;;;6.32;;
12429;SDS011;6279;42.192;24.326;2023-06-14T10:41:56;7.57;;;5.43;;
12429;SDS011;6279;42.192;24.326;2023-06-14T10:47:09;6.10;;;5.50;;
12429;SDS011;6279;42.192;24.326;2023-06-14T10:49:42;6.80;;;5.50;;
12429;SDS011;6279;42.192;24.326;2023-06-14T10:52:12;6.78;;;5.53;;
12429;SDS011;6279;42.192;24.326;2023-06-14T10:57:52;5.25;;;4.75;;
12429;SDS011;6279;42.192;24.326;2023-06-14T11:00:22;5.82;;;5.32;;
12429;SDS011;6279;42.192;24.326;2023-06-14T11:10:59;6.80;;;5.47;;
12429;SDS011;6279;42.192;24.326;2023-06-14T11:13:25;6.00;;;5.40;;
12429;SDS011;6279;42.192;24.326;2023-06-14T11:15:51;6.20;;;5.40;;
12429;SDS011;6279;42.192;24.326;2023-06-14T11:18:18;6.00;;;5.45;;
12429;SDS011;6279;42.192;24.326;2023-06-14T11:20:49;7.28;;;5.22;;
12429;SDS011;6279;42.192;24.326;2023-06-14T11:23:14;6.38;;;5.15;;
12429;SDS011;6279;42.192;24.326;2023-06-14T11:25:40;5.93;;;5.32;;
12429;SDS011;6279;42.192;24.326;2023-06-14T11:28:05;6.15;;;5.63;;
12429;SDS011;6279;42.192;24.326;2023-06-14T11:30:30;6.47;;;5.80;;
12429;SDS011;6279;42.192;24.326;2023-06-14T11:32:56;6.82;;;6.13;;
12429;SDS011;6279;42.192;24.326;2023-06-14T11:35:22;6.90;;;5.68;;
12429;SDS011;6279;42.192;24.326;2023-06-14T11:37:48;7.55;;;6.50;;
12429;SDS011;6279;42.192;24.326;2023-06-14T11:40:14;6.30;;;5.72;;
12429;SDS011;6279;42.192;24.326;2023-06-14T11:42:40;5.85;;;5.35;;
12429;SDS011;6279;42.192;24.326;2023-06-14T11:45:10;7.43;;;6.05;;
12429;SDS011;6279;42.192;24.326;2023-06-14T11:47:37;5.95;;;5.38;;
12429;SDS011;6279;42.192;24.326;2023-06-14T11:50:04;6.43;;;5.85;;
12429;SDS011;6279;42.192;24.326;2023-06-14T11:52:32;6.25;;;5.65;;
12429;SDS011;6279;42.192;24.326;2023-06-14T11:54:58;7.07;;;6.20;;
12429;SDS011;6279;42.192;24.326;2023-06-14T11:57:24;7.57;;;6.03;;
12429;SDS011;6279;42.192;24.326;2023-06-14T11:59:50;6.60;;;6.10;;
12429;SDS011;6279;42.192;24.326;2023-06-14T12:02:16;7.57;;;5.53;;
12429;SDS011;6279;42.192;24.326;2023-06-14T12:04:42;6.97;;;6.28;;
12429;SDS011;6279;42.192;24.326;2023-06-14T12:07:14;6.03;;;5.43;;
12429;SDS011;6279;42.192;24.326;2023-06-14T12:09:43;16.67;;;7.03;;
12429;SDS011;6279;42.192;24.326;2023-06-14T12:12:28;6.70;;;6.10;;
12429;SDS011;6279;42.192;24.326;2023-06-14T12:14:57;6.00;;;5.50;;
12429;SDS011;6279;42.192;24.326;2023-06-14T12:17:22;6.38;;;5.68;;
12429;SDS011;6279;42.192;24.326;2023-06-14T12:19:48;13.15;;;6.32;;
12429;SDS011;6279;42.192;24.326;2023-06-14T12:22:15;6.57;;;6.07;;
12429;SDS011;6279;42.192;24.326;2023-06-14T12:24:44;7.50;;;6.13;;
12429;SDS011;6279;42.192;24.326;2023-06-14T12:27:10;6.25;;;5.40;;
12429;SDS011;6279;42.192;24.326;2023-06-14T12:29:40;5.60;;;5.10;;
12429;SDS011;6279;42.192;24.326;2023-06-14T12:32:10;5.90;;;5.40;;
12429;SDS011;6279;42.192;24.326;2023-06-14T12:34:35;5.85;;;5.35;;
12429;SDS011;6279;42.192;24.326;2023-06-14T12:37:01;4.75;;;4.38;;
12429;SDS011;6279;42.192;24.326;2023-06-14T12:39:29;4.90;;;4.50;;
12429;SDS011;6279;42.192;24.326;2023-06-14T12:41:56;5.80;;;5.30;;
12429;SDS011;6279;42.192;24.326;2023-06-14T12:44:22;5.78;;;5.28;;
12429;SDS011;6279;42.192;24.326;2023-06-14T12:46:47;5.55;;;5.05;;
12429;SDS011;6279;42.192;24.326;2023-06-14T12:49:13;6.32;;;5.35;;
12429;SDS011;6279;42.192;24.326;2023-06-14T12:51:39;5.35;;;4.95;;
12429;SDS011;6279;42.192;24.326;2023-06-14T12:54:04;6.03;;;5.53;;
12429;SDS011;6279;42.192;24.326;2023-06-14T12:56:30;5.68;;;5.18;;
12429;SDS011;6279;42.192;24.326;2023-06-14T12:58:55;6.13;;;5.47;;
12429;SDS011;6279;42.192;24.326;2023-06-14T13:01:21;5.13;;;4.63;;
12429;SDS011;6279;42.192;24.326;2023-06-14T13:03:47;5.82;;;5.32;;
12429;SDS011;6279;42.192;24.326;2023-06-14T13:06:12;6.85;;;5.63;;
12429;SDS011;6279;42.192;24.326;2023-06-14T13:08:38;6.43;;;5.90;;
12429;SDS011;6279;42.192;24.326;2023-06-14T13:11:03;6.10;;;5.50;;
12429;SDS011;6279;42.192;24.326;2023-06-14T13:13:29;6.50;;;5.80;;
12429;SDS011;6279;42.192;24.326;2023-06-14T13:15:54;7.57;;;6.88;;
12429;SDS011;6279;42.192;24.326;2023-06-14T13:18:20;8.45;;;7.22;;
12429;SDS011;6279;42.192;24.326;2023-06-14T13:20:45;7.60;;;6.65;;
12429;SDS011;6279;42.192;24.326;2023-06-14T13:23:11;9.20;;;6.68;;
12429;SDS011;6279;42.192;24.326;2023-06-14T13:25:37;8.00;;;7.20;;
12429;SDS011;6279;42.192;24.326;2023-06-14T13:28:03;8.20;;;7.50;;
12429;SDS011;6279;42.192;24.326;2023-06-14T13:30:30;8.52;;;7.65;;
12429;SDS011;6279;42.192;24.326;2023-06-14T13:32:56;7.68;;;6.90;;
12429;SDS011;6279;42.192;24.326;2023-06-14T13:35:22;8.50;;;7.70;;
12429;SDS011;6279;42.192;24.326;2023-06-14T13:37:48;7.63;;;6.80;;
12429;SDS011;6279;42.192;24.326;2023-06-14T13:40:13;8.40;;;7.22;;
12429;SDS011;6279;42.192;24.326;2023-06-14T13:42:39;10.30;;;6.40;;
12429;SDS011;6279;42.192;24.326;2023-06-14T13:45:05;6.93;;;6.32;;
12429;SDS011;6279;42.192;24.326;2023-06-14T13:47:31;7.53;;;6.78;;
12429;SDS011;6279;42.192;24.326;2023-06-14T13:49:56;7.10;;;6.40;;
12429;SDS011;6279;42.192;24.326;2023-06-14T13:52:22;7.18;;;6.45;;
12429;SDS011;6279;42.192;24.326;2023-06-14T13:54:48;7.47;;;6.78;;
12429;SDS011;6279;42.192;24.326;2023-06-14T13:57:13;9.63;;;6.90;;
12429;SDS011;6279;42.192;24.326;2023-06-14T13:59:39;8.32;;;6.32;;
12429;SDS011;6279;42.192;24.326;2023-06-14T14:02:06;7.38;;;6.68;;
12429;SDS011;6279;42.192;24.326;2023-06-14T14:04:32;7.43;;;6.30;;
12429;SDS011;6279;42.192;24.326;2023-06-14T14:06:59;6.88;;;6.20;;
12429;SDS011;6279;42.192;24.326;2023-06-14T14:09:24;6.85;;;6.20;;
12429;SDS011;6279;42.192;24.326;2023-06-14T14:11:50;9.93;;;6.53;;
12429;SDS011;6279;42.192;24.326;2023-06-14T14:14:15;6.68;;;6.00;;
12429;SDS011;6279;42.192;24.326;2023-06-14T14:16:40;8.43;;;6.93;;
12429;SDS011;6279;42.192;24.326;2023-06-14T14:19:06;6.75;;;5.97;;
12429;SDS011;6279;42.192;24.326;2023-06-14T14:21:32;7.55;;;6.22;;
12429;SDS011;6279;42.192;24.326;2023-06-14T14:23:58;7.25;;;6.47;;
12429;SDS011;6279;42.192;24.326;2023-06-14T14:26:23;6.85;;;6.25;;
12429;SDS011;6279;42.192;24.326;2023-06-14T14:28:50;6.15;;;5.55;;
12429;SDS011;6279;42.192;24.326;2023-06-14T14:31:15;6.63;;;6.03;;
12429;SDS011;6279;42.192;24.326;2023-06-14T14:33:41;6.88;;;6.18;;
12429;SDS011;6279;42.192;24.326;2023-06-14T14:36:07;7.05;;;6.35;;
12429;SDS011;6279;42.192;24.326;2023-06-14T14:38:32;6.63;;;5.82;;
12429;SDS011;6279;42.192;24.326;2023-06-14T14:40:58;12.73;;;6.32;;
12429;SDS011;6279;42.192;24.326;2023-06-14T14:43:23;7.72;;;5.90;;
12429;SDS011;6279;42.192;24.326;2023-06-14T14:45:49;6.30;;;5.68;;
12429;SDS011;6279;42.192;24.326;2023-06-14T14:48:14;6.65;;;6.03;;
12429;SDS011;6279;42.192;24.326;2023-06-14T14:50:39;7.25;;;5.43;;
12429;SDS011;6279;42.192;24.326;2023-06-14T14:53:05;5.85;;;5.35;;
12429;SDS011;6279;42.192;24.326;2023-06-14T14:55:31;6.80;;;6.10;;
12429;SDS011;6279;42.192;24.326;2023-06-14T14:57:59;6.35;;;5.75;;
12429;SDS011;6279;42.192;24.326;2023-06-14T15:00:25;7.75;;;6.28;;